Time;durP1;ratioP1;P1;durP2;ratioP2;P2;SDS_P1;SDS_P2;PMS_P1;PMS_P2;Temp;Humidity;BMP_temperature;BMP_pressure;BME280_temperature;BME280_humidity;BME280_pressure;Samples;Min_cycle;Max_cycle;Signal;HPM_P1;HPM_P2
2022/03/01 03:30:24;;;;;;;10.77;8.02;;;;;;;;;;3085168;27;20040;-78
2022/03/01 03:33:19;;;;;;;12.45;8.40;;;;;;;;;;4925469;29;20028;-78
2022/03/01 03:36:09;;;;;;;14.52;8.63;;;;;;;;;;4923248;28;20053;-78
2022/03/01 03:38:47;;;;;;;14.27;8.75;;;;;;;;;;4940177;29;20119;-78
2022/03/01 03:41:44;;;;;;;13.38;8.55;;;;;;;;;;4938694;29;20133;-79
2022/03/01 03:44:26;;;;;;;15.48;8.73;;;;;;;;;;4920650;29;20035;-78
2022/03/01 03:47:09;;;;;;;13.83;8.63;;;;;;;;;;4889691;29;20092;-77
2022/03/01 03:49:57;;;;;;;13.25;8.48;;;;;;;;;;4917888;29;20048;-84
2022/03/01 03:52:23;;;;;;;14.80;8.65;;;;;;;;;;4843633;29;20030;-83
2022/03/01 03:55:24;;;;;;;13.98;8.15;;;;;;;;;;4863894;29;20058;-80
2022/03/01 04:04:00;;;;;;;12.45;8.27;;;;;;;;;;4970414;29;20040;-81
2022/03/01 04:06:38;;;;;;;12.45;8.15;;;;;;;;;;4961891;28;20030;-78
2022/03/01 04:09:27;;;;;;;11.10;8.32;;;;;;;;;;4973571;29;20059;-80
2022/03/01 04:12:13;;;;;;;11.30;8.52;;;;;;;;;;4956295;29;20059;-81
2022/03/01 04:15:08;;;;;;;12.85;8.23;;;;;;;;;;4973005;28;20070;-88
2022/03/01 04:17:47;;;;;;;12.32;8.43;;;;;;;;;;4919924;29;20070;-85
2022/03/01 04:20:32;;;;;;;15.57;8.80;;;;;;;;;;4964207;29;20046;-88
2022/03/01 04:22:58;;;;;;;12.80;8.18;;;;;;;;;;4937429;29;20027;-83
2022/03/01 04:25:29;;;;;;;11.63;7.88;;;;;;;;;;4948896;29;20121;-84
2022/03/01 04:28:00;;;;;;;15.07;8.60;;;;;;;;;;4934320;29;20516;-80
2022/03/01 04:30:27;;;;;;;17.88;10.18;;;;;;;;;;4969896;29;20027;-82
2022/03/01 04:33:02;;;;;;;15.00;8.30;;;;;;;;;;4974654;28;20035;-80
2022/03/01 04:36:10;;;;;;;11.73;8.10;;;;;;;;;;4944930;28;20039;-78
2022/03/01 04:39:04;;;;;;;12.85;8.57;;;;;;;;;;4960034;28;20112;-80
2022/03/01 04:41:55;;;;;;;12.48;8.32;;;;;;;;;;4847887;29;20030;-79
2022/03/01 04:44:28;;;;;;;13.35;8.73;;;;;;;;;;4854196;29;20040;-79
2022/03/01 04:47:00;;;;;;;12.00;8.07;;;;;;;;;;4834627;29;20050;-80
2022/03/01 04:49:40;;;;;;;15.68;8.25;;;;;;;;;;4837044;29;20032;-84
2022/03/01 04:52:38;;;;;;;13.82;8.35;;;;;;;;;;4838382;29;20038;-83
2022/03/01 04:55:10;;;;;;;12.55;7.97;;;;;;;;;;4837746;29;20038;-84
2022/03/01 05:00:46;;;;;;;12.27;8.30;;;;;;;;;;4844858;29;20091;-84
2022/03/01 05:03:25;;;;;;;13.73;9.32;;;;;;;;;;4837027;29;20045;-82
2022/03/01 05:05:55;;;;;;;17.80;11.43;;;;;;;;;;4834939;29;20085;-79
2022/03/01 05:08:30;;;;;;;18.10;11.65;;;;;;;;;;4849576;29;20083;-84
2022/03/01 05:10:59;;;;;;;19.48;13.15;;;;;;;;;;4821926;29;20059;-84
2022/03/01 05:13:26;;;;;;;22.05;13.45;;;;;;;;;;4844261;29;20508;-85
2022/03/01 05:15:52;;;;;;;33.70;15.70;;;;;;;;;;4845069;29;20067;-82
2022/03/01 05:18:18;;;;;;;23.48;13.30;;;;;;;;;;4879928;29;20047;-76
2022/03/01 05:20:45;;;;;;;28.95;17.55;;;;;;;;;;4917601;29;20040;-76
2022/03/01 05:23:11;;;;;;;30.00;17.33;;;;;;;;;;4926178;29;20513;-73
2022/03/01 05:25:38;;;;;;;36.30;20.42;;;;;;;;;;4925468;29;20055;-76
2022/03/01 05:28:05;;;;;;;29.98;19.10;;;;;;;;;;4918785;29;20032;-78
2022/03/01 05:30:31;;;;;;;33.35;21.52;;;;;;;;;;4918759;29;20088;-82
2022/03/01 05:32:57;;;;;;;34.83;20.60;;;;;;;;;;4925314;29;20016;-74
2022/03/01 05:35:25;;;;;;;39.63;21.58;;;;;;;;;;4927559;29;20033;-77
2022/03/01 05:37:53;;;;;;;32.58;20.60;;;;;;;;;;4923994;29;20024;-74
2022/03/01 05:40:23;;;;;;;36.80;21.40;;;;;;;;;;4925493;29;20115;-77
2022/03/01 05:42:49;;;;;;;37.97;21.90;;;;;;;;;;4924649;29;20417;-74
2022/03/01 05:45:16;;;;;;;37.10;21.25;;;;;;;;;;4924998;29;20024;-77
2022/03/01 05:47:59;;;;;;;34.88;21.50;;;;;;;;;;4925813;29;20562;-70
2022/03/01 05:50:26;;;;;;;37.97;21.42;;;;;;;;;;4923689;29;20517;-76
2022/03/01 05:52:53;;;;;;;32.45;20.95;;;;;;;;;;4916179;29;20052;-77
2022/03/01 05:55:19;;;;;;;38.38;21.50;;;;;;;;;;4916708;29;20513;-74
2022/03/01 05:57:46;;;;;;;37.42;21.75;;;;;;;;;;4913837;29;20380;-74
2022/03/01 06:00:13;;;;;;;31.33;20.58;;;;;;;;;;4904960;29;20439;-76
2022/03/01 06:02:40;;;;;;;35.47;22.42;;;;;;;;;;4918214;29;20025;-76
2022/03/01 06:05:06;;;;;;;33.35;21.33;;;;;;;;;;4919309;29;20035;-76
2022/03/01 06:07:32;;;;;;;39.08;21.38;;;;;;;;;;4935214;29;20044;-75
2022/03/01 06:09:58;;;;;;;35.25;22.33;;;;;;;;;;4934576;29;20023;-74
2022/03/01 06:12:24;;;;;;;39.08;22.75;;;;;;;;;;4940546;29;20054;-74
2022/03/01 06:14:51;;;;;;;36.38;22.58;;;;;;;;;;4935105;29;20030;-74
2022/03/01 06:17:17;;;;;;;36.13;22.35;;;;;;;;;;4943024;29;20095;-75
2022/03/01 06:19:58;;;;;;;35.58;22.52;;;;;;;;;;4948271;28;20036;-78
2022/03/01 06:22:28;;;;;;;37.63;24.52;;;;;;;;;;4950615;29;20048;-77
2022/03/01 06:25:13;;;;;;;39.00;23.13;;;;;;;;;;4901398;29;20047;-77
2022/03/01 06:27:42;;;;;;;40.30;24.33;;;;;;;;;;4908068;29;20111;-77
2022/03/01 06:30:09;;;;;;;42.92;24.75;;;;;;;;;;4940948;29;20027;-77
2022/03/01 06:32:35;;;;;;;39.75;24.35;;;;;;;;;;4930501;29;20028;-77
2022/03/01 06:35:01;;;;;;;48.17;27.02;;;;;;;;;;4941526;29;20075;-74
2022/03/01 06:37:28;;;;;;;41.83;26.40;;;;;;;;;;4930144;29;20047;-74
2022/03/01 06:39:54;;;;;;;49.20;29.80;;;;;;;;;;4945880;29;20032;-75
2022/03/01 06:42:23;;;;;;;45.67;28.40;;;;;;;;;;4932870;29;20040;-74
2022/03/01 06:44:49;;;;;;;51.17;30.20;;;;;;;;;;4947396;29;20027;-75
2022/03/01 06:47:15;;;;;;;57.85;32.20;;;;;;;;;;4946576;29;20027;-75
2022/03/01 06:49:41;;;;;;;58.40;32.50;;;;;;;;;;4947615;29;20175;-75
2022/03/01 06:52:07;;;;;;;66.22;34.65;;;;;;;;;;4947924;29;20032;-74
2022/03/01 06:54:33;;;;;;;65.00;36.47;;;;;;;;;;4944133;29;20464;-75
2022/03/01 06:56:59;;;;;;;72.32;35.75;;;;;;;;;;4942128;29;20032;-75
2022/03/01 06:59:26;;;;;;;70.28;36.22;;;;;;;;;;4940435;29;20043;-74
2022/03/01 07:01:53;;;;;;;76.20;36.70;;;;;;;;;;4939752;29;20454;-75
2022/03/01 07:04:19;;;;;;;94.30;41.65;;;;;;;;;;4937901;29;20367;-75
2022/03/01 07:06:45;;;;;;;116.80;42.00;;;;;;;;;;4936263;29;20055;-75
2022/03/01 07:09:11;;;;;;;119.57;38.28;;;;;;;;;;4938056;29;20042;-74
2022/03/01 07:11:39;;;;;;;115.10;44.38;;;;;;;;;;4943374;29;20032;-76
2022/03/01 07:14:05;;;;;;;232.30;45.90;;;;;;;;;;4938833;29;20535;-74
2022/03/01 07:16:33;;;;;;;158.45;42.22;;;;;;;;;;4935568;29;20110;-75
2022/03/01 07:19:00;;;;;;;154.45;42.55;;;;;;;;;;4937041;29;20478;-76
2022/03/01 07:21:26;;;;;;;128.73;41.25;;;;;;;;;;4937041;29;20119;-75
2022/03/01 07:23:55;;;;;;;104.88;43.83;;;;;;;;;;4936250;29;20032;-76
2022/03/01 07:26:21;;;;;;;140.65;38.33;;;;;;;;;;4935562;29;20062;-76
2022/03/01 07:28:51;;;;;;;142.98;44.00;;;;;;;;;;4936284;29;20027;-76
2022/03/01 07:31:17;;;;;;;170.98;43.60;;;;;;;;;;4936633;29;20036;-75
2022/03/01 07:33:43;;;;;;;167.93;40.45;;;;;;;;;;4936461;29;20016;-75
2022/03/01 07:36:10;;;;;;;129.65;38.83;;;;;;;;;;4936000;29;20087;-75
2022/03/01 07:38:36;;;;;;;155.63;44.35;;;;;;;;;;4935970;29;20075;-75
2022/03/01 07:41:02;;;;;;;123.80;44.00;;;;;;;;;;4936531;29;20398;-75
2022/03/01 07:43:28;;;;;;;119.68;46.90;;;;;;;;;;4926012;29;20142;-75
2022/03/01 07:45:56;;;;;;;105.03;42.85;;;;;;;;;;4936146;29;20042;-74
2022/03/01 07:48:22;;;;;;;106.15;39.97;;;;;;;;;;4936657;29;20046;-75
2022/03/01 07:50:49;;;;;;;104.90;40.63;;;;;;;;;;4938861;29;20032;-74
2022/03/01 07:53:16;;;;;;;79.80;39.35;;;;;;;;;;4940412;29;20036;-73
2022/03/01 07:56:07;;;;;;;75.50;41.20;;;;;;;;;;4941578;29;20036;-74
2022/03/01 07:58:34;;;;;;;76.35;39.22;;;;;;;;;;4943376;29;20063;-77
2022/03/01 08:01:03;;;;;;;74.75;38.50;;;;;;;;;;4939395;29;20057;-72
2022/03/01 08:03:29;;;;;;;64.97;36.92;;;;;;;;;;4935356;29;20038;-72
2022/03/01 08:05:55;;;;;;;54.28;33.10;;;;;;;;;;4944290;29;20075;-77
2022/03/01 08:08:21;;;;;;;62.30;33.78;;;;;;;;;;4925763;29;20042;-76
2022/03/01 08:10:49;;;;;;;55.60;34.72;;;;;;;;;;4943942;29;20051;-78
2022/03/01 08:13:16;;;;;;;46.47;30.95;;;;;;;;;;4942320;29;20103;-74
2022/03/01 08:15:43;;;;;;;49.70;29.85;;;;;;;;;;4944476;29;20485;-76
2022/03/01 08:18:11;;;;;;;48.50;29.40;;;;;;;;;;4944261;29;20028;-76
2022/03/01 08:20:37;;;;;;;50.25;30.77;;;;;;;;;;4921424;29;20079;-77
2022/03/01 08:23:03;;;;;;;45.72;28.80;;;;;;;;;;4939235;29;20075;-74
2022/03/01 08:25:29;;;;;;;41.80;26.63;;;;;;;;;;4942161;29;20048;-77
2022/03/01 08:28:01;;;;;;;52.00;28.58;;;;;;;;;;4945798;29;20039;-76
2022/03/01 08:30:35;;;;;;;44.17;27.17;;;;;;;;;;4929477;28;20036;-77
2022/03/01 08:33:01;;;;;;;40.53;26.92;;;;;;;;;;4937647;29;20029;-74
2022/03/01 08:35:34;;;;;;;43.72;28.77;;;;;;;;;;4946647;29;20020;-70
2022/03/01 08:38:06;;;;;;;43.10;27.58;;;;;;;;;;4944105;29;20028;-74
2022/03/01 08:40:33;;;;;;;44.20;27.73;;;;;;;;;;4935317;29;20040;-74
2022/03/01 08:43:02;;;;;;;45.72;29.27;;;;;;;;;;4936529;29;20032;-75
2022/03/01 08:45:34;;;;;;;43.95;29.27;;;;;;;;;;4940476;29;20023;-79
2022/03/01 08:48:04;;;;;;;45.78;28.75;;;;;;;;;;4926085;29;20046;-74
2022/03/01 08:50:30;;;;;;;46.42;28.65;;;;;;;;;;4938688;29;20041;-77
2022/03/01 08:52:58;;;;;;;44.13;28.20;;;;;;;;;;4940673;29;20099;-73
2022/03/01 08:55:24;;;;;;;44.15;27.52;;;;;;;;;;4937287;29;20027;-74
2022/03/01 08:57:50;;;;;;;37.97;26.38;;;;;;;;;;4931955;29;20040;-75
2022/03/01 09:00:19;;;;;;;37.78;26.70;;;;;;;;;;4939056;29;20023;-75
2022/03/01 09:02:45;;;;;;;37.15;23.50;;;;;;;;;;4940307;29;20043;-76
2022/03/01 09:05:11;;;;;;;48.13;28.08;;;;;;;;;;4942025;29;20137;-75
2022/03/01 09:07:38;;;;;;;28.17;20.67;;;;;;;;;;4924723;29;20096;-74
2022/03/01 09:10:05;;;;;;;27.40;17.45;;;;;;;;;;4936045;29;20087;-75
2022/03/01 09:12:31;;;;;;;25.52;17.35;;;;;;;;;;4943223;29;20028;-76
2022/03/01 09:14:57;;;;;;;24.05;16.48;;;;;;;;;;4939909;29;20055;-75
2022/03/01 09:17:25;;;;;;;22.27;14.98;;;;;;;;;;4940211;29;20035;-76
2022/03/01 09:19:52;;;;;;;19.52;14.57;;;;;;;;;;4938216;29;20035;-76
2022/03/01 09:22:18;;;;;;;23.48;15.15;;;;;;;;;;4932984;29;20036;-74
2022/03/01 09:24:44;;;;;;;21.90;14.35;;;;;;;;;;4932162;29;20032;-74
2022/03/01 09:27:11;;;;;;;227.13;115.53;;;;;;;;;;4943196;29;20031;-75
2022/03/01 09:29:37;;;;;;;22.60;16.10;;;;;;;;;;4939625;29;20094;-74
2022/03/01 09:32:06;;;;;;;20.65;15.77;;;;;;;;;;4938716;29;20028;-74
2022/03/01 09:34:32;;;;;;;23.95;15.75;;;;;;;;;;4938442;29;20031;-72
2022/03/01 09:37:00;;;;;;;28.52;14.88;;;;;;;;;;4934008;29;20502;-73
2022/03/01 09:39:26;;;;;;;18.92;13.65;;;;;;;;;;4938259;29;20642;-74
2022/03/01 09:41:53;;;;;;;17.75;13.13;;;;;;;;;;4937596;29;20036;-73
2022/03/01 09:44:19;;;;;;;16.38;13.10;;;;;;;;;;4939482;29;20039;-72
2022/03/01 09:46:48;;;;;;;24.58;16.42;;;;;;;;;;4929024;29;20042;-72
2022/03/01 09:49:14;;;;;;;19.02;13.52;;;;;;;;;;4935511;29;20055;-74
2022/03/01 09:51:40;;;;;;;19.95;12.85;;;;;;;;;;4939068;29;20031;-73
2022/03/01 09:54:07;;;;;;;20.95;12.73;;;;;;;;;;4934716;29;20067;-73
2022/03/01 09:56:33;;;;;;;19.10;11.82;;;;;;;;;;4939362;29;20051;-74
2022/03/01 09:59:00;;;;;;;21.83;11.63;;;;;;;;;;4939244;29;20034;-75
2022/03/01 10:01:26;;;;;;;17.83;12.52;;;;;;;;;;4921721;29;20044;-74
2022/03/01 10:03:54;;;;;;;17.20;13.07;;;;;;;;;;4936767;29;20024;-75
2022/03/01 10:06:55;;;;;;;21.02;14.40;;;;;;;;;;4944802;29;20103;-77
2022/03/01 10:09:23;;;;;;;18.00;12.70;;;;;;;;;;4887785;29;20041;-75
2022/03/01 10:11:50;;;;;;;19.15;15.13;;;;;;;;;;4882764;29;20034;-74
2022/03/01 10:14:27;;;;;;;24.88;15.95;;;;;;;;;;4882690;29;20040;-74
2022/03/01 10:16:53;;;;;;;19.98;14.50;;;;;;;;;;4878506;29;20146;-74
2022/03/01 10:19:22;;;;;;;29.50;19.98;;;;;;;;;;4877746;29;20113;-75
2022/03/01 10:21:49;;;;;;;22.23;15.35;;;;;;;;;;4877044;29;20081;-75
2022/03/01 10:24:19;;;;;;;34.08;20.60;;;;;;;;;;4881527;29;20041;-75
2022/03/01 10:26:49;;;;;;;23.10;14.75;;;;;;;;;;4890617;29;20146;-75
2022/03/01 10:32:21;;;;;;;19.50;12.52;;;;;;;;;;4887621;29;20044;-76
2022/03/01 10:35:00;;;;;;;20.40;11.27;;;;;;;;;;4890183;29;20037;-75
2022/03/01 10:37:30;;;;;;;15.35;10.63;;;;;;;;;;4890186;29;20069;-75
2022/03/01 10:40:12;;;;;;;14.73;10.27;;;;;;;;;;4893296;29;20033;-73
2022/03/01 10:42:43;;;;;;;15.98;8.55;;;;;;;;;;4885713;29;20142;-72
2022/03/01 10:45:19;;;;;;;13.27;8.13;;;;;;;;;;4887865;29;20032;-74
2022/03/01 10:47:53;;;;;;;16.15;10.20;;;;;;;;;;4882799;29;20043;-74
2022/03/01 10:50:19;;;;;;;10.07;6.40;;;;;;;;;;4886602;29;20035;-74
2022/03/01 10:52:46;;;;;;;8.38;5.60;;;;;;;;;;4874397;29;20056;-74
2022/03/01 10:55:22;;;;;;;7.78;5.60;;;;;;;;;;4882562;29;20045;-75
2022/03/01 11:03:22;;;;;;;8.65;5.25;;;;;;;;;;5060851;23;20051;-76
2022/03/01 11:05:48;;;;;;;9.90;5.70;;;;;;;;;;4945406;28;20039;-77
2022/03/01 11:08:39;;;;;;;8.18;5.50;;;;;;;;;;4962639;28;20030;-78
2022/03/01 11:11:15;;;;;;;7.10;5.38;;;;;;;;;;4982166;28;20046;-75
2022/03/01 11:13:46;;;;;;;7.07;4.97;;;;;;;;;;4978881;28;20066;-76
2022/03/01 11:16:58;;;;;;;8.43;5.15;;;;;;;;;;4986229;28;20034;-78
2022/03/01 11:19:47;;;;;;;6.32;4.90;;;;;;;;;;4912539;29;20056;-78
2022/03/01 11:22:46;;;;;;;9.27;5.15;;;;;;;;;;4912488;29;20041;-71
2022/03/01 11:25:20;;;;;;;9.55;5.57;;;;;;;;;;4894317;29;20025;-71
2022/03/01 11:27:48;;;;;;;8.80;4.85;;;;;;;;;;4891851;29;20037;-76
2022/03/01 11:30:14;;;;;;;7.93;4.50;;;;;;;;;;4892229;29;20108;-76
2022/03/01 11:32:42;;;;;;;8.98;4.78;;;;;;;;;;4897238;29;20089;-76
2022/03/01 11:35:15;;;;;;;7.55;5.32;;;;;;;;;;4898731;29;20123;-76
2022/03/01 11:37:43;;;;;;;8.93;5.35;;;;;;;;;;4895479;29;20108;-77
2022/03/01 11:40:19;;;;;;;10.02;5.78;;;;;;;;;;4886470;29;20025;-77
2022/03/01 11:42:53;;;;;;;12.85;6.15;;;;;;;;;;4894687;29;20061;-75
2022/03/01 11:45:19;;;;;;;9.23;5.28;;;;;;;;;;4869350;29;20041;-75
2022/03/01 11:47:56;;;;;;;9.82;5.18;;;;;;;;;;4864547;29;20061;-74
2022/03/01 11:50:23;;;;;;;9.18;5.22;;;;;;;;;;4874685;29;20122;-76
2022/03/01 11:53:24;;;;;;;10.57;5.85;;;;;;;;;;4880878;29;20037;-76
2022/03/01 11:55:58;;;;;;;8.98;5.88;;;;;;;;;;4844244;29;20057;-76
2022/03/01 11:58:28;;;;;;;8.90;5.78;;;;;;;;;;4818404;29;20042;-75
2022/03/01 12:00:56;;;;;;;8.95;5.78;;;;;;;;;;4846229;29;20049;-76
2022/03/01 12:03:25;;;;;;;12.07;6.03;;;;;;;;;;4826003;29;20046;-77
2022/03/01 12:05:52;;;;;;;7.18;5.50;;;;;;;;;;4842790;29;20137;-78
2022/03/01 12:08:18;;;;;;;11.68;6.03;;;;;;;;;;4842371;29;20496;-76
2022/03/01 12:10:53;;;;;;;7.90;5.63;;;;;;;;;;4839668;29;20176;-76
2022/03/01 12:13:20;;;;;;;6.03;4.82;;;;;;;;;;4824426;29;20496;-76
2022/03/01 12:15:55;;;;;;;8.10;5.15;;;;;;;;;;4824987;29;20051;-76
2022/03/01 12:18:27;;;;;;;13.30;6.10;;;;;;;;;;4841060;29;20142;-76
2022/03/01 12:20:53;;;;;;;9.40;5.47;;;;;;;;;;4840972;29;20053;-77
2022/03/01 12:23:26;;;;;;;9.95;6.00;;;;;;;;;;4828498;29;20034;-77
2022/03/01 12:25:52;;;;;;;7.07;4.35;;;;;;;;;;4844426;29;20042;-75
2022/03/01 12:28:20;;;;;;;9.52;5.20;;;;;;;;;;4843570;29;20038;-77
2022/03/01 12:30:46;;;;;;;6.78;5.00;;;;;;;;;;4873534;29;20541;-77
2022/03/01 12:33:19;;;;;;;7.32;4.55;;;;;;;;;;4946866;29;20032;-78
2022/03/01 12:35:55;;;;;;;6.70;4.15;;;;;;;;;;4940766;29;20031;-71
2022/03/01 12:38:24;;;;;;;7.25;4.18;;;;;;;;;;4936080;29;20035;-74
2022/03/01 12:40:50;;;;;;;7.57;4.50;;;;;;;;;;4948603;29;20036;-79
2022/03/01 12:43:16;;;;;;;6.10;3.95;;;;;;;;;;4962722;29;20034;-74
2022/03/01 12:45:44;;;;;;;6.00;4.25;;;;;;;;;;4955770;29;20031;-71
2022/03/01 12:48:13;;;;;;;7.20;4.50;;;;;;;;;;4939155;29;20171;-72
2022/03/01 12:50:48;;;;;;;6.75;4.53;;;;;;;;;;4943713;29;20031;-72
2022/03/01 12:53:15;;;;;;;5.45;4.10;;;;;;;;;;4961110;29;20611;-74
2022/03/01 12:55:42;;;;;;;5.60;4.25;;;;;;;;;;4960664;29;20023;-75
2022/03/01 12:58:21;;;;;;;5.40;4.25;;;;;;;;;;4963174;29;20086;-76
2022/03/01 13:00:48;;;;;;;5.78;4.50;;;;;;;;;;4959427;29;20043;-75
2022/03/01 13:03:25;;;;;;;8.73;4.47;;;;;;;;;;4958291;29;20051;-77
2022/03/01 13:05:51;;;;;;;8.82;5.05;;;;;;;;;;4960732;29;20035;-75
2022/03/01 13:08:18;;;;;;;5.78;4.15;;;;;;;;;;4960723;29;20168;-75
2022/03/01 13:10:48;;;;;;;6.47;4.13;;;;;;;;;;4959788;29;20055;-76
2022/03/01 13:13:14;;;;;;;6.35;4.55;;;;;;;;;;4960047;29;20164;-76
2022/03/01 13:15:46;;;;;;;7.15;4.60;;;;;;;;;;4960832;29;20542;-77
2022/03/01 13:18:12;;;;;;;8.90;4.60;;;;;;;;;;4960227;29;20027;-75
2022/03/01 13:20:38;;;;;;;8.43;4.43;;;;;;;;;;4959912;29;20023;-76
2022/03/01 13:23:08;;;;;;;8.02;4.90;;;;;;;;;;4962405;29;20379;-77
2022/03/01 13:25:36;;;;;;;7.20;4.40;;;;;;;;;;4963121;29;20098;-78
2022/03/01 13:28:02;;;;;;;6.53;3.95;;;;;;;;;;4965194;29;20059;-76
2022/03/01 13:30:29;;;;;;;8.40;4.07;;;;;;;;;;4963417;29;20034;-77
2022/03/01 13:33:07;;;;;;;7.13;3.85;;;;;;;;;;4960861;29;20035;-74
2022/03/01 13:35:34;;;;;;;5.60;4.07;;;;;;;;;;4956275;29;20043;-75
2022/03/01 13:38:02;;;;;;;7.55;3.85;;;;;;;;;;4958273;29;20024;-74
2022/03/01 13:40:29;;;;;;;9.88;4.70;;;;;;;;;;4958499;29;20027;-75
2022/03/01 13:43:09;;;;;;;5.82;4.25;;;;;;;;;;4939105;29;20106;-73
2022/03/01 13:45:36;;;;;;;7.63;4.30;;;;;;;;;;4960477;28;20082;-74
2022/03/01 13:48:13;;;;;;;8.18;4.55;;;;;;;;;;4956353;29;20027;-75
2022/03/01 13:50:39;;;;;;;8.95;4.30;;;;;;;;;;4959113;29;20034;-76
2022/03/01 13:53:13;;;;;;;6.22;4.63;;;;;;;;;;4958224;29;20024;-74
2022/03/01 13:55:39;;;;;;;6.35;4.25;;;;;;;;;;4963543;29;20023;-74
2022/03/01 13:58:11;;;;;;;9.35;4.30;;;;;;;;;;4960555;29;20094;-75
2022/03/01 14:00:42;;;;;;;10.70;4.15;;;;;;;;;;4957877;29;20023;-73
2022/03/01 14:03:34;;;;;;;9.20;5.22;;;;;;;;;;4961393;29;20053;-78
2022/03/01 14:06:04;;;;;;;7.57;4.93;;;;;;;;;;4870446;29;20078;-78
2022/03/01 14:08:32;;;;;;;13.20;6.10;;;;;;;;;;4845884;29;20060;-76
2022/03/01 14:10:59;;;;;;;6.53;4.50;;;;;;;;;;4871363;29;20050;-75
2022/03/01 14:13:31;;;;;;;6.28;4.10;;;;;;;;;;4871081;29;20112;-74
2022/03/01 14:16:04;;;;;;;11.77;4.68;;;;;;;;;;4854230;29;20041;-72
2022/03/01 14:18:30;;;;;;;;;;;;;;;;;;4869079;29;20124;-75
2022/03/01 14:20:56;;;;;;;7.40;4.65;;;;;;;;;;4867771;29;19999;-72
2022/03/01 14:23:24;;;;;;;7.00;4.13;;;;;;;;;;4863844;29;20042;-71
2022/03/01 14:25:55;;;;;;;10.50;4.72;;;;;;;;;;4863202;29;20539;-71
2022/03/01 14:28:21;;;;;;;9.50;4.60;;;;;;;;;;4864274;29;20033;-71
2022/03/01 14:30:50;;;;;;;8.20;5.32;;;;;;;;;;4865977;29;20041;-75
2022/03/01 14:33:19;;;;;;;9.02;4.45;;;;;;;;;;4862775;29;20022;-74
2022/03/01 14:36:01;;;;;;;12.43;6.53;;;;;;;;;;4856721;29;20037;-72
2022/03/01 14:38:27;;;;;;;7.60;5.00;;;;;;;;;;4864320;29;20029;-72
2022/03/01 14:40:53;;;;;;;8.63;4.75;;;;;;;;;;4861002;29;20133;-71
2022/03/01 14:43:22;;;;;;;8.05;4.82;;;;;;;;;;4909367;29;20043;-72
2022/03/01 14:45:53;;;;;;;12.80;4.72;;;;;;;;;;4936182;29;20114;-71
2022/03/01 14:48:46;;;;;;;8.93;4.72;;;;;;;;;;4918080;29;20050;-71
2022/03/01 14:51:27;;;;;;;7.28;5.03;;;;;;;;;;4944677;29;20038;-71
2022/03/01 14:53:56;;;;;;;9.02;5.15;;;;;;;;;;4956293;29;20087;-74
2022/03/01 14:56:26;;;;;;;6.70;4.38;;;;;;;;;;4955159;29;20026;-73
2022/03/01 14:58:59;;;;;;;6.20;4.38;;;;;;;;;;4941938;29;20027;-71
2022/03/01 15:01:27;;;;;;;10.13;5.15;;;;;;;;;;4951870;29;20031;-71
2022/03/01 15:03:53;;;;;;;9.70;4.70;;;;;;;;;;4951415;29;20042;-77
2022/03/01 15:06:19;;;;;;;10.05;4.70;;;;;;;;;;4963612;29;20039;-76
2022/03/01 15:08:45;;;;;;;5.65;4.53;;;;;;;;;;4968082;29;20051;-75
2022/03/01 15:11:11;;;;;;;7.03;4.20;;;;;;;;;;4973568;29;20035;-76
2022/03/01 15:13:37;;;;;;;7.85;4.70;;;;;;;;;;4964278;29;20067;-72
2022/03/01 15:16:04;;;;;;;6.50;4.03;;;;;;;;;;4974641;29;20035;-74
2022/03/01 15:18:30;;;;;;;8.20;4.47;;;;;;;;;;4959069;29;20032;-77
2022/03/01 15:20:57;;;;;;;8.80;4.40;;;;;;;;;;4952273;29;20055;-74
2022/03/01 15:23:24;;;;;;;9.38;4.72;;;;;;;;;;4952079;29;20445;-74
2022/03/01 15:25:55;;;;;;;9.68;4.70;;;;;;;;;;4956543;29;20038;-79
2022/03/01 15:28:23;;;;;;;8.85;4.43;;;;;;;;;;4948491;29;20560;-73
2022/03/01 15:31:02;;;;;;;7.35;4.47;;;;;;;;;;4948850;29;20058;-74
2022/03/01 15:33:28;;;;;;;7.95;4.38;;;;;;;;;;4932322;29;20396;-73
2022/03/01 15:35:58;;;;;;;9.73;4.03;;;;;;;;;;4935312;29;20042;-72
2022/03/01 15:38:29;;;;;;;11.10;4.25;;;;;;;;;;4938886;29;20065;-73
2022/03/01 15:40:57;;;;;;;7.03;4.28;;;;;;;;;;4939733;29;20039;-72
2022/03/01 15:43:23;;;;;;;6.55;4.25;;;;;;;;;;4941930;29;20069;-74
2022/03/01 15:45:53;;;;;;;7.90;4.20;;;;;;;;;;4958969;29;20024;-74
2022/03/01 15:48:21;;;;;;;8.80;4.88;;;;;;;;;;4939495;29;20046;-77
2022/03/01 15:50:47;;;;;;;6.90;4.40;;;;;;;;;;4934064;29;20118;-78
2022/03/01 15:53:13;;;;;;;9.20;4.50;;;;;;;;;;4955705;29;20039;-76
2022/03/01 15:55:40;;;;;;;16.95;5.50;;;;;;;;;;4948567;29;20023;-74
2022/03/01 15:58:12;;;;;;;14.55;4.75;;;;;;;;;;4954342;29;20027;-74
2022/03/01 16:00:38;;;;;;;7.20;4.60;;;;;;;;;;4944624;29;20023;-77
2022/03/01 16:03:05;;;;;;;10.15;4.78;;;;;;;;;;4957223;29;20075;-75
2022/03/01 16:05:31;;;;;;;9.32;5.10;;;;;;;;;;4960003;29;20394;-75
2022/03/01 16:08:05;;;;;;;9.77;5.07;;;;;;;;;;4958643;29;20078;-76
2022/03/01 16:10:32;;;;;;;10.00;4.90;;;;;;;;;;4953693;28;20024;-75
2022/03/01 16:12:59;;;;;;;7.05;4.78;;;;;;;;;;4937068;29;20111;-74
2022/03/01 16:15:30;;;;;;;10.30;5.30;;;;;;;;;;4922250;29;20035;-71
2022/03/01 16:18:15;;;;;;;13.18;5.32;;;;;;;;;;4948993;29;20043;-72
2022/03/01 16:20:41;;;;;;;9.95;4.40;;;;;;;;;;4940060;29;20047;-71
2022/03/01 16:23:08;;;;;;;7.95;5.05;;;;;;;;;;4955664;29;20401;-74
2022/03/01 16:25:44;;;;;;;9.65;5.65;;;;;;;;;;4940949;29;20082;-71
2022/03/01 16:28:32;;;;;;;15.13;5.40;;;;;;;;;;4955678;29;20110;-70
2022/03/01 16:31:02;;;;;;;8.23;4.78;;;;;;;;;;4938337;29;20028;-70
2022/03/01 16:33:30;;;;;;;7.93;4.78;;;;;;;;;;4949673;29;20027;-75
2022/03/01 16:36:04;;;;;;;8.95;5.40;;;;;;;;;;4936411;28;20059;-76
2022/03/01 16:38:33;;;;;;;9.23;5.05;;;;;;;;;;4955391;29;20034;-73
2022/03/01 16:41:03;;;;;;;12.85;5.53;;;;;;;;;;4941403;29;20070;-78
2022/03/01 16:43:30;;;;;;;15.23;7.85;;;;;;;;;;4963331;29;20027;-76
2022/03/01 16:45:57;;;;;;;22.08;6.50;;;;;;;;;;4958058;29;20063;-80
2022/03/01 16:48:23;;;;;;;17.52;8.20;;;;;;;;;;4958600;29;20091;-73
2022/03/01 16:50:50;;;;;;;18.48;10.98;;;;;;;;;;4956030;29;20055;-74
2022/03/01 16:53:16;;;;;;;16.40;9.63;;;;;;;;;;4954312;29;20031;-75
2022/03/01 16:55:42;;;;;;;12.80;8.95;;;;;;;;;;4954355;29;20046;-73
2022/03/01 16:58:12;;;;;;;26.13;12.10;;;;;;;;;;4951852;29;20381;-75
2022/03/01 17:00:38;;;;;;;16.42;9.07;;;;;;;;;;4948600;29;20071;-76
2022/03/01 17:03:07;;;;;;;18.05;9.95;;;;;;;;;;4951301;29;20126;-75
2022/03/01 17:05:35;;;;;;;12.25;6.40;;;;;;;;;;4953365;29;20035;-74
2022/03/01 17:08:02;;;;;;;12.20;7.13;;;;;;;;;;4948027;29;20027;-74
2022/03/01 17:10:28;;;;;;;12.95;7.00;;;;;;;;;;4935420;29;20035;-74
2022/03/01 17:12:54;;;;;;;10.73;6.70;;;;;;;;;;4951633;29;20024;-76
2022/03/01 17:15:23;;;;;;;12.18;7.03;;;;;;;;;;4955535;29;20488;-75
2022/03/01 17:17:50;;;;;;;10.55;5.65;;;;;;;;;;4951772;29;20075;-77
2022/03/01 17:20:16;;;;;;;9.05;5.70;;;;;;;;;;4950725;29;20031;-75
2022/03/01 17:22:42;;;;;;;14.00;5.50;;;;;;;;;;4934153;29;20062;-74
2022/03/01 17:25:09;;;;;;;10.15;6.25;;;;;;;;;;4958617;29;20499;-76
2022/03/01 17:27:35;;;;;;;9.60;6.65;;;;;;;;;;4959392;29;20023;-74
2022/03/01 17:30:01;;;;;;;15.23;7.07;;;;;;;;;;4953697;29;20050;-75
2022/03/01 17:32:29;;;;;;;11.27;6.90;;;;;;;;;;4959802;29;20098;-76
2022/03/01 17:34:56;;;;;;;14.90;7.15;;;;;;;;;;4972751;29;20140;-74
2022/03/01 17:37:23;;;;;;;55.40;35.28;;;;;;;;;;4959439;28;20027;-74
2022/03/01 17:39:49;;;;;;;76.38;50.03;;;;;;;;;;4957181;29;20023;-74
2022/03/01 17:42:15;;;;;;;29.35;21.13;;;;;;;;;;4952750;29;20035;-75
2022/03/01 17:44:41;;;;;;;25.00;16.10;;;;;;;;;;4958260;28;20097;-75
2022/03/01 17:47:07;;;;;;;20.83;12.38;;;;;;;;;;4957356;29;20031;-75
2022/03/01 17:49:34;;;;;;;24.75;12.52;;;;;;;;;;4956091;29;20031;-74
2022/03/01 17:52:00;;;;;;;19.70;11.20;;;;;;;;;;4946712;29;20042;-75
2022/03/01 17:54:27;;;;;;;22.17;12.63;;;;;;;;;;4935227;29;20039;-73
2022/03/01 17:56:53;;;;;;;26.52;13.85;;;;;;;;;;4945545;29;20077;-74
2022/03/01 17:59:19;;;;;;;27.58;13.07;;;;;;;;;;4961348;29;20070;-77
2022/03/01 18:01:45;;;;;;;33.78;20.75;;;;;;;;;;4962568;29;20131;-73
2022/03/01 18:04:13;;;;;;;38.83;19.75;;;;;;;;;;4957282;29;20031;-73
2022/03/01 18:06:40;;;;;;;39.78;21.65;;;;;;;;;;4961056;29;20047;-76
2022/03/01 18:09:06;;;;;;;42.22;20.45;;;;;;;;;;4963194;28;20036;-76
2022/03/01 18:11:32;;;;;;;30.23;15.80;;;;;;;;;;4965704;29;20027;-72
2022/03/01 18:13:59;;;;;;;31.25;16.48;;;;;;;;;;4953715;29;21748;-76
2022/03/01 18:16:25;;;;;;;23.30;13.57;;;;;;;;;;4958360;29;20046;-74
2022/03/01 18:19:10;;;;;;;26.40;14.95;;;;;;;;;;4955713;29;20035;-76
2022/03/01 18:21:37;;;;;;;43.28;21.42;;;;;;;;;;4966891;29;20119;-78
2022/03/01 18:24:03;;;;;;;60.53;36.53;;;;;;;;;;4936300;29;20126;-75
2022/03/01 18:26:29;;;;;;;45.65;30.10;;;;;;;;;;4964604;29;20027;-78
2022/03/01 18:28:59;;;;;;;42.85;26.58;;;;;;;;;;4967015;29;20481;-72
2022/03/01 18:31:25;;;;;;;35.70;20.67;;;;;;;;;;4957119;29;20039;-77
2022/03/01 18:33:52;;;;;;;44.90;21.83;;;;;;;;;;4954494;28;20074;-71